This is the latest recevied weather packets stored in our database for station/object N0FDH. If no packets are shown the sender has not sent any weather packets the latest 10 day(s).
| Time | Temp. | Humidity | Pressure | Rain* | Wind** | Luminosity | Snow |
|---|---|---|---|---|---|---|---|
| 1778002886 | 5.56° C | 56% | 1009.7 hPa | 0 mm | - | 153 W/m² | - |
| 1778002583 | 5.56° C | 55% | 1009.7 hPa | 0 mm | - | 225 W/m² | - |
| 1778002280 | 5.56° C | 54% | 1009.9 hPa | 0 mm | - | 246 W/m² | - |
| 1778001978 | 5° C | 54% | 1009.8 hPa | 0 mm | - | 279 W/m² | - |
| 1778001675 | 5° C | 55% | 1009.8 hPa | 0 mm | - | 215 W/m² | - |
| 1778001375 | 5° C | 56% | 1009.9 hPa | 0 mm | - | 254 W/m² | - |
| 1778001072 | 5° C | 57% | 1010 hPa | 0 mm | - | 143 W/m² | - |
| 1778000769 | 5° C | 57% | 1010 hPa | 0 mm | - | 133 W/m² | - |
| 1778000466 | 5.56° C | 56% | 1009.8 hPa | 0 mm | - | 172 W/m² | - |
| 1778000160 | 5° C | 54% | 1009.9 hPa | 0 mm | - | 202 W/m² | - |
| 1777999857 | 5° C | 56% | 1009.9 hPa | 0 mm | - | 158 W/m² | - |
| 1777999553 | 5° C | 55% | 1009.7 hPa | 0 mm | - | 270 W/m² | - |
| 1777999250 | 5° C | 58% | 1009.7 hPa | 0 mm | - | 173 W/m² | - |
| 1777998949 | 5° C | 55% | 1009.8 hPa | 0 mm | - | 207 W/m² | - |
| 1777998645 | 5.56° C | 52% | 1009.6 hPa | 0 mm | - | 346 W/m² | - |
| 1777998344 | 5° C | 53% | 1009.9 hPa | 0 mm | - | 430 W/m² | - |
| 1777998041 | 5° C | 56% | 1009.8 hPa | 0 mm | - | 264 W/m² | - |
| 1777997738 | 5° C | 54% | 1009.8 hPa | 0 mm | - | 240 W/m² | - |
| 1777997435 | 5° C | 60% | 1009.8 hPa | 0 mm | - | 174 W/m² | - |
| 1777997133 | 4.44° C | 57% | 1009.6 hPa | 0 mm | - | 226 W/m² | - |
| 1777996830 | 5° C | 57% | 1009.5 hPa | 0 mm | - | 305 W/m² | - |
| 1777996526 | 4.44° C | 58% | 1009.5 hPa | 0 mm | - | 271 W/m² | - |
| 1777996223 | 4.44° C | 59% | 1009.6 hPa | 0 mm | - | 174 W/m² | - |
| 1777995919 | 5° C | 56% | 1009.4 hPa | 0 mm | - | 238 W/m² | - |
| 1777995615 | 4.44° C | 54% | 1009.5 hPa | 0 mm | - | 299 W/m² | - |
* Rain latest hour (hover to see other rain measurements)
** Current wind speed in m/s (hover to see current wind gust speed)